sensor_id;sensor_type;location;lat;lon;timestamp;P1;durP1;ratioP1;P2;durP2;ratioP2
14381;SDS011;7275;50.328;8.720;2022-08-05T00:02:21;4.18;;;2.15;;
14381;SDS011;7275;50.328;8.720;2022-08-05T00:04:49;3.20;;;1.90;;
14381;SDS011;7275;50.328;8.720;2022-08-05T00:07:21;3.05;;;2.05;;
14381;SDS011;7275;50.328;8.720;2022-08-05T00:10:08;2.33;;;2.00;;
14381;SDS011;7275;50.328;8.720;2022-08-05T00:12:36;2.42;;;2.10;;
14381;SDS011;7275;50.328;8.720;2022-08-05T00:15:22;3.83;;;2.08;;
14381;SDS011;7275;50.328;8.720;2022-08-05T00:18:11;4.90;;;2.08;;
14381;SDS011;7275;50.328;8.720;2022-08-05T00:20:47;5.05;;;2.25;;
14381;SDS011;7275;50.328;8.720;2022-08-05T00:23:15;3.63;;;2.20;;
14381;SDS011;7275;50.328;8.720;2022-08-05T00:26:03;5.45;;;2.38;;
14381;SDS011;7275;50.328;8.720;2022-08-05T00:28:31;3.58;;;2.38;;
14381;SDS011;7275;50.328;8.720;2022-08-05T00:31:00;6.47;;;2.45;;
14381;SDS011;7275;50.328;8.720;2022-08-05T00:33:33;5.32;;;2.63;;
14381;SDS011;7275;50.328;8.720;2022-08-05T00:36:21;7.70;;;2.22;;
14381;SDS011;7275;50.328;8.720;2022-08-05T00:39:09;5.63;;;2.38;;
14381;SDS011;7275;50.328;8.720;2022-08-05T00:41:39;5.72;;;2.70;;
14381;SDS011;7275;50.328;8.720;2022-08-05T00:44:20;6.03;;;2.55;;
14381;SDS011;7275;50.328;8.720;2022-08-05T00:46:56;5.25;;;2.30;;
14381;SDS011;7275;50.328;8.720;2022-08-05T00:49:30;2.85;;;2.28;;
14381;SDS011;7275;50.328;8.720;2022-08-05T00:52:16;3.28;;;2.40;;
14381;SDS011;7275;50.328;8.720;2022-08-05T00:54:53;2.90;;;2.10;;
14381;SDS011;7275;50.328;8.720;2022-08-05T00:57:21;3.22;;;2.15;;
14381;SDS011;7275;50.328;8.720;2022-08-05T01:00:03;3.38;;;2.38;;
14381;SDS011;7275;50.328;8.720;2022-08-05T01:02:36;3.22;;;2.33;;
14381;SDS011;7275;50.328;8.720;2022-08-05T01:05:05;8.57;;;3.25;;
14381;SDS011;7275;50.328;8.720;2022-08-05T01:07:35;5.72;;;2.83;;
14381;SDS011;7275;50.328;8.720;2022-08-05T01:10:26;4.40;;;2.90;;
14381;SDS011;7275;50.328;8.720;2022-08-05T01:12:57;5.20;;;2.92;;
14381;SDS011;7275;50.328;8.720;2022-08-05T01:15:46;5.93;;;3.00;;
14381;SDS011;7275;50.328;8.720;2022-08-05T01:18:21;3.55;;;2.60;;
14381;SDS011;7275;50.328;8.720;2022-08-05T01:20:59;3.30;;;2.70;;
14381;SDS011;7275;50.328;8.720;2022-08-05T01:23:34;3.80;;;2.60;;
14381;SDS011;7275;50.328;8.720;2022-08-05T01:26:20;5.88;;;3.40;;
14381;SDS011;7275;50.328;8.720;2022-08-05T01:29:02;4.47;;;2.90;;
14381;SDS011;7275;50.328;8.720;2022-08-05T01:31:33;4.50;;;2.72;;
14381;SDS011;7275;50.328;8.720;2022-08-05T01:34:11;4.30;;;2.80;;
14381;SDS011;7275;50.328;8.720;2022-08-05T01:36:43;5.03;;;2.35;;
14381;SDS011;7275;50.328;8.720;2022-08-05T01:39:16;6.50;;;3.17;;
14381;SDS011;7275;50.328;8.720;2022-08-05T01:42:05;3.90;;;2.67;;
14381;SDS011;7275;50.328;8.720;2022-08-05T01:44:40;3.58;;;2.60;;
14381;SDS011;7275;50.328;8.720;2022-08-05T01:47:10;4.15;;;2.85;;
14381;SDS011;7275;50.328;8.720;2022-08-05T01:49:41;3.53;;;2.42;;
14381;SDS011;7275;50.328;8.720;2022-08-05T01:52:28;3.85;;;2.50;;
14381;SDS011;7275;50.328;8.720;2022-08-05T01:54:58;4.57;;;2.92;;
14381;SDS011;7275;50.328;8.720;2022-08-05T01:57:32;4.88;;;2.53;;
14381;SDS011;7275;50.328;8.720;2022-08-05T02:00:24;3.65;;;2.55;;
14381;SDS011;7275;50.328;8.720;2022-08-05T02:02:57;2.97;;;2.40;;
14381;SDS011;7275;50.328;8.720;2022-08-05T02:05:31;3.13;;;2.70;;
14381;SDS011;7275;50.328;8.720;2022-08-05T02:08:01;4.68;;;2.85;;
14381;SDS011;7275;50.328;8.720;2022-08-05T02:10:31;3.55;;;2.60;;
14381;SDS011;7275;50.328;8.720;2022-08-05T02:13:04;3.85;;;2.70;;
14381;SDS011;7275;50.328;8.720;2022-08-05T02:15:44;3.95;;;2.55;;
14381;SDS011;7275;50.328;8.720;2022-08-05T02:18:19;4.47;;;2.90;;
14381;SDS011;7275;50.328;8.720;2022-08-05T02:21:00;4.15;;;2.95;;
14381;SDS011;7275;50.328;8.720;2022-08-05T02:23:41;3.80;;;2.78;;
14381;SDS011;7275;50.328;8.720;2022-08-05T02:26:11;3.47;;;2.78;;
14381;SDS011;7275;50.328;8.720;2022-08-05T02:28:42;4.10;;;2.85;;
14381;SDS011;7275;50.328;8.720;2022-08-05T02:31:13;3.72;;;3.10;;
14381;SDS011;7275;50.328;8.720;2022-08-05T02:33:47;5.50;;;3.15;;
14381;SDS011;7275;50.328;8.720;2022-08-05T02:36:23;4.30;;;3.00;;
14381;SDS011;7275;50.328;8.720;2022-08-05T02:38:57;3.22;;;2.75;;
14381;SDS011;7275;50.328;8.720;2022-08-05T02:41:26;4.20;;;3.13;;
14381;SDS011;7275;50.328;8.720;2022-08-05T02:44:15;3.90;;;3.22;;
14381;SDS011;7275;50.328;8.720;2022-08-05T02:46:46;3.97;;;3.13;;
14381;SDS011;7275;50.328;8.720;2022-08-05T02:49:26;5.45;;;3.33;;
14381;SDS011;7275;50.328;8.720;2022-08-05T02:52:04;3.78;;;3.40;;
14381;SDS011;7275;50.328;8.720;2022-08-05T02:54:37;4.93;;;3.15;;
14381;SDS011;7275;50.328;8.720;2022-08-05T02:57:16;6.25;;;3.28;;
14381;SDS011;7275;50.328;8.720;2022-08-05T03:00:05;4.47;;;3.60;;
14381;SDS011;7275;50.328;8.720;2022-08-05T03:02:37;4.25;;;3.20;;
14381;SDS011;7275;50.328;8.720;2022-08-05T03:05:10;3.70;;;3.17;;
14381;SDS011;7275;50.328;8.720;2022-08-05T03:07:38;3.90;;;3.00;;
14381;SDS011;7275;50.328;8.720;2022-08-05T03:10:27;4.75;;;3.08;;
14381;SDS011;7275;50.328;8.720;2022-08-05T03:12:55;4.57;;;2.60;;
14381;SDS011;7275;50.328;8.720;2022-08-05T03:15:22;4.20;;;2.70;;
14381;SDS011;7275;50.328;8.720;2022-08-05T03:17:52;4.70;;;3.00;;
14381;SDS011;7275;50.328;8.720;2022-08-05T03:20:21;3.42;;;2.50;;
14381;SDS011;7275;50.328;8.720;2022-08-05T03:22:49;2.88;;;2.45;;
14381;SDS011;7275;50.328;8.720;2022-08-05T03:25:22;3.33;;;2.55;;
14381;SDS011;7275;50.328;8.720;2022-08-05T03:27:59;3.25;;;2.75;;
14381;SDS011;7275;50.328;8.720;2022-08-05T03:30:28;4.20;;;2.60;;
14381;SDS011;7275;50.328;8.720;2022-08-05T03:33:01;3.40;;;2.35;;
14381;SDS011;7275;50.328;8.720;2022-08-05T03:35:31;2.95;;;2.60;;
14381;SDS011;7275;50.328;8.720;2022-08-05T03:38:06;4.20;;;2.78;;
14381;SDS011;7275;50.328;8.720;2022-08-05T03:40:38;2.90;;;2.40;;
14381;SDS011;7275;50.328;8.720;2022-08-05T03:43:10;2.70;;;2.10;;
14381;SDS011;7275;50.328;8.720;2022-08-05T03:45:58;2.88;;;2.58;;
14381;SDS011;7275;50.328;8.720;2022-08-05T03:48:28;3.08;;;2.30;;
14381;SDS011;7275;50.328;8.720;2022-08-05T03:51:02;2.78;;;2.20;;
14381;SDS011;7275;50.328;8.720;2022-08-05T03:53:57;2.67;;;2.22;;
14381;SDS011;7275;50.328;8.720;2022-08-05T03:56:49;3.75;;;2.63;;
14381;SDS011;7275;50.328;8.720;2022-08-05T03:59:18;3.03;;;2.70;;
14381;SDS011;7275;50.328;8.720;2022-08-05T04:01:49;3.28;;;2.47;;
14381;SDS011;7275;50.328;8.720;2022-08-05T04:04:25;3.30;;;2.40;;
14381;SDS011;7275;50.328;8.720;2022-08-05T04:06:53;2.92;;;2.25;;
14381;SDS011;7275;50.328;8.720;2022-08-05T04:09:22;2.15;;;2.05;;
14381;SDS011;7275;50.328;8.720;2022-08-05T04:11:52;2.58;;;2.38;;
14381;SDS011;7275;50.328;8.720;2022-08-05T04:14:22;3.17;;;2.40;;
14381;SDS011;7275;50.328;8.720;2022-08-05T04:16:56;3.03;;;2.50;;
14381;SDS011;7275;50.328;8.720;2022-08-05T04:19:28;3.38;;;2.80;;
14381;SDS011;7275;50.328;8.720;2022-08-05T04:21:56;3.42;;;2.65;;
14381;SDS011;7275;50.328;8.720;2022-08-05T04:24:37;2.55;;;2.35;;
14381;SDS011;7275;50.328;8.720;2022-08-05T04:27:17;3.40;;;2.40;;
14381;SDS011;7275;50.328;8.720;2022-08-05T04:30:05;3.92;;;2.50;;
14381;SDS011;7275;50.328;8.720;2022-08-05T04:32:34;2.50;;;2.30;;
14381;SDS011;7275;50.328;8.720;2022-08-05T04:35:06;3.20;;;2.67;;
14381;SDS011;7275;50.328;8.720;2022-08-05T04:37:45;3.80;;;3.05;;
14381;SDS011;7275;50.328;8.720;2022-08-05T04:40:28;2.97;;;2.67;;
14381;SDS011;7275;50.328;8.720;2022-08-05T04:42:58;5.05;;;3.20;;
14381;SDS011;7275;50.328;8.720;2022-08-05T04:45:26;3.92;;;3.58;;
14381;SDS011;7275;50.328;8.720;2022-08-05T04:48:14;3.92;;;3.35;;
14381;SDS011;7275;50.328;8.720;2022-08-05T04:50:54;3.88;;;3.50;;
14381;SDS011;7275;50.328;8.720;2022-08-05T04:53:29;3.38;;;3.05;;
14381;SDS011;7275;50.328;8.720;2022-08-05T04:56:00;4.47;;;3.15;;
14381;SDS011;7275;50.328;8.720;2022-08-05T04:58:48;4.43;;;3.55;;
14381;SDS011;7275;50.328;8.720;2022-08-05T05:01:16;4.97;;;4.15;;
14381;SDS011;7275;50.328;8.720;2022-08-05T05:04:04;4.78;;;3.80;;
14381;SDS011;7275;50.328;8.720;2022-08-05T05:06:33;4.70;;;3.95;;
14381;SDS011;7275;50.328;8.720;2022-08-05T05:09:10;5.38;;;4.25;;
14381;SDS011;7275;50.328;8.720;2022-08-05T05:11:42;5.07;;;4.57;;
14381;SDS011;7275;50.328;8.720;2022-08-05T05:14:23;4.15;;;3.75;;
14381;SDS011;7275;50.328;8.720;2022-08-05T05:16:57;5.32;;;4.75;;
14381;SDS011;7275;50.328;8.720;2022-08-05T05:19:25;4.75;;;4.30;;
14381;SDS011;7275;50.328;8.720;2022-08-05T05:22:14;4.97;;;4.43;;
14381;SDS011;7275;50.328;8.720;2022-08-05T05:24:51;5.90;;;4.30;;
14381;SDS011;7275;50.328;8.720;2022-08-05T05:27:25;5.43;;;4.22;;
14381;SDS011;7275;50.328;8.720;2022-08-05T05:30:13;4.72;;;4.05;;
14381;SDS011;7275;50.328;8.720;2022-08-05T05:32:55;4.60;;;4.20;;
14381;SDS011;7275;50.328;8.720;2022-08-05T05:35:29;4.45;;;4.05;;
14381;SDS011;7275;50.328;8.720;2022-08-05T05:38:06;4.13;;;3.70;;
14381;SDS011;7275;50.328;8.720;2022-08-05T05:40:37;4.93;;;3.35;;
14381;SDS011;7275;50.328;8.720;2022-08-05T05:43:15;4.07;;;3.20;;
14381;SDS011;7275;50.328;8.720;2022-08-05T05:46:02;5.30;;;4.32;;
14381;SDS011;7275;50.328;8.720;2022-08-05T05:48:39;4.95;;;4.43;;
14381;SDS011;7275;50.328;8.720;2022-08-05T05:51:09;4.95;;;4.50;;
14381;SDS011;7275;50.328;8.720;2022-08-05T05:53:42;4.53;;;4.13;;
14381;SDS011;7275;50.328;8.720;2022-08-05T05:56:23;4.15;;;3.63;;
14381;SDS011;7275;50.328;8.720;2022-08-05T05:58:58;4.45;;;4.05;;
14381;SDS011;7275;50.328;8.720;2022-08-05T06:01:30;4.28;;;3.72;;
14381;SDS011;7275;50.328;8.720;2022-08-05T06:04:03;3.90;;;3.60;;
14381;SDS011;7275;50.328;8.720;2022-08-05T06:06:32;4.22;;;3.83;;
14381;SDS011;7275;50.328;8.720;2022-08-05T06:09:01;4.88;;;3.70;;
14381;SDS011;7275;50.328;8.720;2022-08-05T06:11:30;4.00;;;3.60;;
14381;SDS011;7275;50.328;8.720;2022-08-05T06:13:58;3.65;;;3.17;;
14381;SDS011;7275;50.328;8.720;2022-08-05T06:16:27;3.60;;;3.17;;
14381;SDS011;7275;50.328;8.720;2022-08-05T06:18:58;6.10;;;3.63;;
14381;SDS011;7275;50.328;8.720;2022-08-05T06:21:27;3.45;;;3.25;;
14381;SDS011;7275;50.328;8.720;2022-08-05T06:24:04;3.78;;;3.47;;
14381;SDS011;7275;50.328;8.720;2022-08-05T06:26:37;4.55;;;3.28;;
14381;SDS011;7275;50.328;8.720;2022-08-05T06:29:17;5.20;;;3.90;;
14381;SDS011;7275;50.328;8.720;2022-08-05T06:32:04;4.13;;;3.72;;
14381;SDS011;7275;50.328;8.720;2022-08-05T06:34:53;4.40;;;3.60;;
14381;SDS011;7275;50.328;8.720;2022-08-05T06:37:22;4.03;;;3.63;;
14381;SDS011;7275;50.328;8.720;2022-08-05T06:40:11;3.72;;;3.38;;
14381;SDS011;7275;50.328;8.720;2022-08-05T06:42:46;4.13;;;3.75;;
14381;SDS011;7275;50.328;8.720;2022-08-05T06:45:17;4.25;;;3.70;;
14381;SDS011;7275;50.328;8.720;2022-08-05T06:48:06;3.63;;;3.33;;
14381;SDS011;7275;50.328;8.720;2022-08-05T06:50:53;4.05;;;3.75;;
14381;SDS011;7275;50.328;8.720;2022-08-05T06:53:21;4.43;;;4.03;;
14381;SDS011;7275;50.328;8.720;2022-08-05T06:55:55;4.68;;;4.18;;
14381;SDS011;7275;50.328;8.720;2022-08-05T06:58:24;5.10;;;4.60;;
14381;SDS011;7275;50.328;8.720;2022-08-05T07:01:00;4.68;;;4.07;;
14381;SDS011;7275;50.328;8.720;2022-08-05T07:03:28;4.68;;;4.15;;
14381;SDS011;7275;50.328;8.720;2022-08-05T07:05:58;4.70;;;4.25;;
14381;SDS011;7275;50.328;8.720;2022-08-05T07:08:39;4.78;;;4.30;;
14381;SDS011;7275;50.328;8.720;2022-08-05T07:11:08;5.65;;;4.35;;
14381;SDS011;7275;50.328;8.720;2022-08-05T07:13:41;4.88;;;4.38;;
14381;SDS011;7275;50.328;8.720;2022-08-05T07:16:26;4.95;;;4.43;;
14381;SDS011;7275;50.328;8.720;2022-08-05T07:19:32;5.40;;;4.35;;
14381;SDS011;7275;50.328;8.720;2022-08-05T07:22:20;4.93;;;4.50;;
14381;SDS011;7275;50.328;8.720;2022-08-05T07:24:55;4.85;;;4.45;;
14381;SDS011;7275;50.328;8.720;2022-08-05T07:27:25;5.05;;;4.55;;
14381;SDS011;7275;50.328;8.720;2022-08-05T07:30:12;5.38;;;4.85;;
14381;SDS011;7275;50.328;8.720;2022-08-05T07:32:53;5.80;;;4.97;;
14381;SDS011;7275;50.328;8.720;2022-08-05T07:35:22;5.43;;;4.93;;
14381;SDS011;7275;50.328;8.720;2022-08-05T07:38:10;5.88;;;5.38;;
14381;SDS011;7275;50.328;8.720;2022-08-05T07:40:57;6.40;;;5.15;;
14381;SDS011;7275;50.328;8.720;2022-08-05T07:43:46;5.78;;;5.20;;
14381;SDS011;7275;50.328;8.720;2022-08-05T07:46:15;5.40;;;4.90;;
14381;SDS011;7275;50.328;8.720;2022-08-05T07:48:50;5.70;;;5.10;;
14381;SDS011;7275;50.328;8.720;2022-08-05T07:51:33;5.18;;;4.75;;
14381;SDS011;7275;50.328;8.720;2022-08-05T07:54:06;7.55;;;5.97;;
14381;SDS011;7275;50.328;8.720;2022-08-05T07:56:36;6.88;;;5.97;;
14381;SDS011;7275;50.328;8.720;2022-08-05T07:59:25;6.70;;;6.00;;
14381;SDS011;7275;50.328;8.720;2022-08-05T08:02:06;6.65;;;5.90;;
14381;SDS011;7275;50.328;8.720;2022-08-05T08:04:42;6.32;;;5.25;;
14381;SDS011;7275;50.328;8.720;2022-08-05T08:07:10;5.50;;;5.00;;
14381;SDS011;7275;50.328;8.720;2022-08-05T08:09:38;5.13;;;4.63;;
14381;SDS011;7275;50.328;8.720;2022-08-05T08:12:06;5.78;;;4.82;;
14381;SDS011;7275;50.328;8.720;2022-08-05T08:14:55;5.30;;;4.25;;
14381;SDS011;7275;50.328;8.720;2022-08-05T08:17:28;5.93;;;4.90;;
14381;SDS011;7275;50.328;8.720;2022-08-05T08:19:56;8.80;;;5.07;;
14381;SDS011;7275;50.328;8.720;2022-08-05T08:22:49;7.35;;;5.13;;
14381;SDS011;7275;50.328;8.720;2022-08-05T08:25:17;7.18;;;5.43;;
14381;SDS011;7275;50.328;8.720;2022-08-05T08:28:05;6.50;;;5.90;;
14381;SDS011;7275;50.328;8.720;2022-08-05T08:30:44;7.10;;;5.63;;
14381;SDS011;7275;50.328;8.720;2022-08-05T08:33:15;7.00;;;5.47;;
14381;SDS011;7275;50.328;8.720;2022-08-05T08:35:44;6.35;;;5.75;;
14381;SDS011;7275;50.328;8.720;2022-08-05T08:38:19;8.07;;;6.28;;
14381;SDS011;7275;50.328;8.720;2022-08-05T08:41:01;6.90;;;5.82;;
14381;SDS011;7275;50.328;8.720;2022-08-05T08:43:32;7.05;;;5.90;;
14381;SDS011;7275;50.328;8.720;2022-08-05T08:46:22;6.07;;;5.47;;
14381;SDS011;7275;50.328;8.720;2022-08-05T08:48:53;5.95;;;5.35;;
14381;SDS011;7275;50.328;8.720;2022-08-05T08:51:41;6.28;;;5.68;;
14381;SDS011;7275;50.328;8.720;2022-08-05T08:54:32;4.97;;;4.47;;
14381;SDS011;7275;50.328;8.720;2022-08-05T08:57:02;5.88;;;4.85;;
14381;SDS011;7275;50.328;8.720;2022-08-05T08:59:38;5.28;;;4.57;;
14381;SDS011;7275;50.328;8.720;2022-08-05T09:02:15;5.45;;;4.28;;
14381;SDS011;7275;50.328;8.720;2022-08-05T09:04:45;5.10;;;4.40;;
14381;SDS011;7275;50.328;8.720;2022-08-05T09:07:33;5.57;;;4.78;;
14381;SDS011;7275;50.328;8.720;2022-08-05T09:10:21;4.78;;;4.28;;
14381;SDS011;7275;50.328;8.720;2022-08-05T09:12:54;4.85;;;4.22;;
14381;SDS011;7275;50.328;8.720;2022-08-05T09:15:30;4.80;;;3.75;;
14381;SDS011;7275;50.328;8.720;2022-08-05T09:18:03;5.13;;;3.83;;
14381;SDS011;7275;50.328;8.720;2022-08-05T09:20:34;3.55;;;3.25;;
14381;SDS011;7275;50.328;8.720;2022-08-05T09:23:04;3.40;;;3.10;;
14381;SDS011;7275;50.328;8.720;2022-08-05T09:25:35;3.42;;;2.90;;
14381;SDS011;7275;50.328;8.720;2022-08-05T09:28:23;2.65;;;2.45;;
14381;SDS011;7275;50.328;8.720;2022-08-05T09:30:59;2.50;;;2.30;;
14381;SDS011;7275;50.328;8.720;2022-08-05T09:33:50;3.78;;;2.10;;
14381;SDS011;7275;50.328;8.720;2022-08-05T09:36:18;2.28;;;2.08;;
14381;SDS011;7275;50.328;8.720;2022-08-05T09:38:56;2.30;;;2.10;;
14381;SDS011;7275;50.328;8.720;2022-08-05T09:41:27;2.17;;;1.98;;
14381;SDS011;7275;50.328;8.720;2022-08-05T09:44:03;2.15;;;2.00;;
14381;SDS011;7275;50.328;8.720;2022-08-05T09:46:33;2.45;;;2.17;;
14381;SDS011;7275;50.328;8.720;2022-08-05T09:49:02;2.55;;;2.30;;
14381;SDS011;7275;50.328;8.720;2022-08-05T09:51:45;2.35;;;2.10;;
14381;SDS011;7275;50.328;8.720;2022-08-05T09:54:16;2.58;;;2.03;;
14381;SDS011;7275;50.328;8.720;2022-08-05T09:56:54;2.20;;;2.00;;
14381;SDS011;7275;50.328;8.720;2022-08-05T09:59:26;2.28;;;2.08;;
14381;SDS011;7275;50.328;8.720;2022-08-05T10:02:00;2.60;;;2.10;;
14381;SDS011;7275;50.328;8.720;2022-08-05T10:04:34;2.05;;;1.90;;
14381;SDS011;7275;50.328;8.720;2022-08-05T10:07:05;3.58;;;2.20;;
14381;SDS011;7275;50.328;8.720;2022-08-05T10:09:54;2.20;;;2.00;;
14381;SDS011;7275;50.328;8.720;2022-08-05T10:12:44;2.33;;;2.10;;
14381;SDS011;7275;50.328;8.720;2022-08-05T10:15:20;2.08;;;1.98;;
14381;SDS011;7275;50.328;8.720;2022-08-05T10:18:01;2.15;;;2.00;;
14381;SDS011;7275;50.328;8.720;2022-08-05T10:20:34;3.40;;;2.00;;
14381;SDS011;7275;50.328;8.720;2022-08-05T10:23:03;2.30;;;2.10;;
14381;SDS011;7275;50.328;8.720;2022-08-05T10:25:51;2.08;;;1.98;;
14381;SDS011;7275;50.328;8.720;2022-08-05T10:28:20;2.42;;;2.22;;
14381;SDS011;7275;50.328;8.720;2022-08-05T10:30:55;2.75;;;2.40;;
14381;SDS011;7275;50.328;8.720;2022-08-05T10:33:44;2.40;;;2.20;;
14381;SDS011;7275;50.328;8.720;2022-08-05T10:36:20;3.05;;;2.20;;
14381;SDS011;7275;50.328;8.720;2022-08-05T10:38:51;2.08;;;1.90;;
14381;SDS011;7275;50.328;8.720;2022-08-05T10:41:27;2.35;;;2.15;;
14381;SDS011;7275;50.328;8.720;2022-08-05T10:44:15;2.20;;;2.00;;
14381;SDS011;7275;50.328;8.720;2022-08-05T10:46:46;2.10;;;1.90;;
14381;SDS011;7275;50.328;8.720;2022-08-05T10:49:16;2.55;;;2.30;;
14381;SDS011;7275;50.328;8.720;2022-08-05T10:51:59;2.17;;;1.98;;
14381;SDS011;7275;50.328;8.720;2022-08-05T10:54:43;2.33;;;2.20;;
14381;SDS011;7275;50.328;8.720;2022-08-05T10:57:25;2.50;;;2.30;;
14381;SDS011;7275;50.328;8.720;2022-08-05T11:00:05;2.40;;;2.20;;
14381;SDS011;7275;50.328;8.720;2022-08-05T11:06:05;2.20;;;2.00;;
14381;SDS011;7275;50.328;8.720;2022-08-05T11:12:04;2.35;;;2.17;;
14381;SDS011;7275;50.328;8.720;2022-08-05T11:15:06;2.13;;;2.00;;
14381;SDS011;7275;50.328;8.720;2022-08-05T11:17:46;2.50;;;2.30;;
14381;SDS011;7275;50.328;8.720;2022-08-05T11:20:41;2.50;;;2.30;;
14381;SDS011;7275;50.328;8.720;2022-08-05T11:26:29;2.33;;;2.05;;
14381;SDS011;7275;50.328;8.720;2022-08-05T11:28:59;3.03;;;2.40;;
14381;SDS011;7275;50.328;8.720;2022-08-05T11:31:40;2.92;;;2.50;;
14381;SDS011;7275;50.328;8.720;2022-08-05T11:34:33;3.00;;;2.40;;
14381;SDS011;7275;50.328;8.720;2022-08-05T11:37:03;2.28;;;2.10;;
14381;SDS011;7275;50.328;8.720;2022-08-05T11:39:51;2.97;;;2.40;;
14381;SDS011;7275;50.328;8.720;2022-08-05T11:42:28;3.40;;;2.63;;
14381;SDS011;7275;50.328;8.720;2022-08-05T11:45:06;2.47;;;2.28;;
14381;SDS011;7275;50.328;8.720;2022-08-05T11:47:49;2.55;;;2.28;;
14381;SDS011;7275;50.328;8.720;2022-08-05T11:50:20;2.85;;;2.50;;
14381;SDS011;7275;50.328;8.720;2022-08-05T11:52:47;3.22;;;2.25;;
14381;SDS011;7275;50.328;8.720;2022-08-05T11:55:23;2.70;;;2.50;;
14381;SDS011;7275;50.328;8.720;2022-08-05T11:57:57;2.97;;;2.60;;
14381;SDS011;7275;50.328;8.720;2022-08-05T12:00:37;3.22;;;2.92;;
14381;SDS011;7275;50.328;8.720;2022-08-05T12:03:16;3.63;;;2.80;;
14381;SDS011;7275;50.328;8.720;2022-08-05T12:05:57;2.90;;;2.60;;
14381;SDS011;7275;50.328;8.720;2022-08-05T12:08:27;3.00;;;2.80;;
14381;SDS011;7275;50.328;8.720;2022-08-05T12:10:58;3.35;;;3.05;;
14381;SDS011;7275;50.328;8.720;2022-08-05T12:13:31;3.50;;;3.20;;
14381;SDS011;7275;50.328;8.720;2022-08-05T12:16:16;3.50;;;3.20;;
14381;SDS011;7275;50.328;8.720;2022-08-05T12:18:46;3.45;;;3.00;;
14381;SDS011;7275;50.328;8.720;2022-08-05T12:21:18;3.45;;;3.15;;
14381;SDS011;7275;50.328;8.720;2022-08-05T12:23:52;3.50;;;3.30;;
14381;SDS011;7275;50.328;8.720;2022-08-05T12:26:30;3.80;;;3.50;;
14381;SDS011;7275;50.328;8.720;2022-08-05T12:28:58;3.67;;;3.38;;
14381;SDS011;7275;50.328;8.720;2022-08-05T12:31:29;5.20;;;4.47;;
14381;SDS011;7275;50.328;8.720;2022-08-05T12:34:11;4.93;;;4.53;;
14381;SDS011;7275;50.328;8.720;2022-08-05T12:36:46;4.85;;;4.45;;
14381;SDS011;7275;50.328;8.720;2022-08-05T12:39:16;5.28;;;4.82;;
14381;SDS011;7275;50.328;8.720;2022-08-05T12:41:44;5.15;;;4.65;;
14381;SDS011;7275;50.328;8.720;2022-08-05T12:44:14;4.88;;;4.55;;
14381;SDS011;7275;50.328;8.720;2022-08-05T12:46:58;4.40;;;4.10;;
14381;SDS011;7275;50.328;8.720;2022-08-05T12:49:38;4.57;;;4.28;;
14381;SDS011;7275;50.328;8.720;2022-08-05T12:52:27;4.10;;;3.80;;
14381;SDS011;7275;50.328;8.720;2022-08-05T12:55:07;4.00;;;3.70;;
14381;SDS011;7275;50.328;8.720;2022-08-05T12:57:47;3.50;;;3.20;;
14381;SDS011;7275;50.328;8.720;2022-08-05T13:00:35;3.53;;;3.22;;
14381;SDS011;7275;50.328;8.720;2022-08-05T13:03:28;3.30;;;3.10;;
14381;SDS011;7275;50.328;8.720;2022-08-05T13:05:59;3.55;;;3.25;;
14381;SDS011;7275;50.328;8.720;2022-08-05T13:08:27;3.60;;;3.30;;
14381;SDS011;7275;50.328;8.720;2022-08-05T13:10:58;3.78;;;3.40;;
14381;SDS011;7275;50.328;8.720;2022-08-05T13:13:26;3.25;;;2.95;;
14381;SDS011;7275;50.328;8.720;2022-08-05T13:16:14;3.42;;;3.13;;
14381;SDS011;7275;50.328;8.720;2022-08-05T13:18:49;3.60;;;3.30;;
14381;SDS011;7275;50.328;8.720;2022-08-05T13:21:21;3.35;;;3.10;;
14381;SDS011;7275;50.328;8.720;2022-08-05T13:24:02;3.42;;;3.13;;
14381;SDS011;7275;50.328;8.720;2022-08-05T13:26:30;3.75;;;3.45;;
14381;SDS011;7275;50.328;8.720;2022-08-05T13:28:58;3.60;;;3.30;;
14381;SDS011;7275;50.328;8.720;2022-08-05T13:31:26;3.58;;;3.25;;
14381;SDS011;7275;50.328;8.720;2022-08-05T13:34:13;3.60;;;3.30;;
14381;SDS011;7275;50.328;8.720;2022-08-05T13:36:51;3.88;;;3.58;;
14381;SDS011;7275;50.328;8.720;2022-08-05T13:39:20;4.32;;;3.58;;
14381;SDS011;7275;50.328;8.720;2022-08-05T13:42:07;3.42;;;3.22;;
14381;SDS011;7275;50.328;8.720;2022-08-05T13:44:40;3.60;;;3.30;;
14381;SDS011;7275;50.328;8.720;2022-08-05T13:47:11;3.75;;;3.45;;
14381;SDS011;7275;50.328;8.720;2022-08-05T13:49:59;3.72;;;3.42;;
14381;SDS011;7275;50.328;8.720;2022-08-05T13:52:32;3.40;;;3.17;;
14381;SDS011;7275;50.328;8.720;2022-08-05T13:55:01;3.85;;;3.55;;
14381;SDS011;7275;50.328;8.720;2022-08-05T13:57:34;3.90;;;3.50;;
14381;SDS011;7275;50.328;8.720;2022-08-05T14:00:17;4.03;;;3.60;;
14381;SDS011;7275;50.328;8.720;2022-08-05T14:02:53;4.28;;;3.95;;
14381;SDS011;7275;50.328;8.720;2022-08-05T14:05:21;5.00;;;4.60;;
14381;SDS011;7275;50.328;8.720;2022-08-05T14:08:10;5.03;;;4.63;;
14381;SDS011;7275;50.328;8.720;2022-08-05T14:10:52;4.60;;;4.30;;
14381;SDS011;7275;50.328;8.720;2022-08-05T14:13:40;5.25;;;4.82;;
14381;SDS011;7275;50.328;8.720;2022-08-05T14:16:07;4.82;;;4.43;;
14381;SDS011;7275;50.328;8.720;2022-08-05T14:18:36;5.50;;;5.10;;
14381;SDS011;7275;50.328;8.720;2022-08-05T14:21:04;5.63;;;5.13;;
14381;SDS011;7275;50.328;8.720;2022-08-05T14:23:53;5.60;;;5.10;;
14381;SDS011;7275;50.328;8.720;2022-08-05T14:26:21;5.20;;;4.80;;
14381;SDS011;7275;50.328;8.720;2022-08-05T14:29:04;4.60;;;4.20;;
14381;SDS011;7275;50.328;8.720;2022-08-05T14:31:42;4.20;;;3.90;;
14381;SDS011;7275;50.328;8.720;2022-08-05T14:34:29;4.03;;;3.72;;
14381;SDS011;7275;50.328;8.720;2022-08-05T14:37:00;3.63;;;3.33;;
14381;SDS011;7275;50.328;8.720;2022-08-05T14:39:30;4.20;;;3.90;;
14381;SDS011;7275;50.328;8.720;2022-08-05T14:42:15;4.00;;;3.70;;
14381;SDS011;7275;50.328;8.720;2022-08-05T14:44:47;4.47;;;4.18;;
14381;SDS011;7275;50.328;8.720;2022-08-05T14:47:15;4.10;;;3.75;;
14381;SDS011;7275;50.328;8.720;2022-08-05T14:50:03;3.65;;;3.35;;
14381;SDS011;7275;50.328;8.720;2022-08-05T14:52:43;5.00;;;3.35;;
14381;SDS011;7275;50.328;8.720;2022-08-05T14:55:23;3.45;;;3.15;;
14381;SDS011;7275;50.328;8.720;2022-08-05T14:57:53;4.18;;;3.00;;
14381;SDS011;7275;50.328;8.720;2022-08-05T15:00:21;3.25;;;2.92;;
14381;SDS011;7275;50.328;8.720;2022-08-05T15:02:54;3.20;;;3.00;;
14381;SDS011;7275;50.328;8.720;2022-08-05T15:05:24;3.50;;;3.20;;
14381;SDS011;7275;50.328;8.720;2022-08-05T15:08:12;2.72;;;2.53;;
14381;SDS011;7275;50.328;8.720;2022-08-05T15:11:01;3.00;;;2.80;;
14381;SDS011;7275;50.328;8.720;2022-08-05T15:13:29;3.00;;;2.80;;
14381;SDS011;7275;50.328;8.720;2022-08-05T15:16:11;3.53;;;2.95;;
14381;SDS011;7275;50.328;8.720;2022-08-05T15:18:39;3.10;;;2.80;;
14381;SDS011;7275;50.328;8.720;2022-08-05T15:21:06;3.08;;;2.88;;
14381;SDS011;7275;50.328;8.720;2022-08-05T15:23:34;3.08;;;2.83;;
14381;SDS011;7275;50.328;8.720;2022-08-05T15:26:04;3.30;;;3.00;;
14381;SDS011;7275;50.328;8.720;2022-08-05T15:28:32;3.00;;;2.80;;
14381;SDS011;7275;50.328;8.720;2022-08-05T15:31:00;2.83;;;2.45;;
14381;SDS011;7275;50.328;8.720;2022-08-05T15:33:30;2.78;;;2.58;;
14381;SDS011;7275;50.328;8.720;2022-08-05T15:36:18;2.50;;;2.30;;
14381;SDS011;7275;50.328;8.720;2022-08-05T15:38:50;2.55;;;2.35;;
14381;SDS011;7275;50.328;8.720;2022-08-05T15:41:39;2.80;;;2.50;;
14381;SDS011;7275;50.328;8.720;2022-08-05T15:44:24;2.75;;;2.50;;
14381;SDS011;7275;50.328;8.720;2022-08-05T15:46:53;3.17;;;2.10;;
14381;SDS011;7275;50.328;8.720;2022-08-05T15:49:21;2.28;;;2.00;;
14381;SDS011;7275;50.328;8.720;2022-08-05T15:52:08;2.00;;;1.80;;
14381;SDS011;7275;50.328;8.720;2022-08-05T15:54:56;1.75;;;1.65;;
14381;SDS011;7275;50.328;8.720;2022-08-05T15:57:25;1.65;;;1.55;;
14381;SDS011;7275;50.328;8.720;2022-08-05T16:00:00;1.55;;;1.45;;
14381;SDS011;7275;50.328;8.720;2022-08-05T16:02:28;1.60;;;1.50;;
14381;SDS011;7275;50.328;8.720;2022-08-05T16:04:56;1.60;;;1.50;;
14381;SDS011;7275;50.328;8.720;2022-08-05T16:07:24;1.50;;;1.40;;